Crystal Symphony — C6MY5 — position and weather

sailwx.info

Track history (hours):
 
Tides and Currents Weather Stations Pressure Air Temp Water Temp Dewpoint Dewpoint Depression Visibility Wind Speed Wind Dir Waves Ship Positions

Crystal Symphony

Operator: Crystal Cruises

Last reported at 2015-May-26 07:28 UTC. Time now 2015-May-26 09:50 UTC.
Position N 31°40' W 117°24'.

Length 238 m; draft 8 m.

Type: Passenger vessel. MMSI: 309168000.

Date/timePositionNaut miles runAvg speedWind from/ knotsBaromVisibWave heightAir tempDewpointWater temp
2015-May-26 07:28N 31°40' W 117°24'2319.6
2015-May-26 06:18N 32°01' W 117°33'1419.4
2015-May-26 05:34N 32°15' W 117°39'2019.9
2015-May-26 04:34N 32°33' W 117°47'2019.7
2015-May-26 03:34N 32°52' W 117°56'2020.1
2015-May-26 02:34N 33°11' W 118°03'2120.2
2015-May-26 01:32N 33°30' W 118°11'1411.5
2015-May-26 00:19N 33°44' W 118°16'1 1.3
2015-May-25 23:31N 33°45' W 118°17'0 0.0
2015-May-25 22:30N 33°45' W 118°17'0 0.0
2015-May-25 21:30N 33°45' W 118°17'0 0.0
2015-May-25 20:18N 33°45' W 118°17'0 0.0
2015-May-25 19:05N 33°45' W 118°17'0 0.0
2015-May-25 18:20N 33°45' W 118°17'0 0.0
2015-May-25 16:28N 33°45' W 118°17'0 0.1
2015-May-25 12:23N 33°45' W 118°16'13 7.1
2015-May-25 10:29N 33°33' W 118°09'9 9.4
2015-May-25 09:33N 33°25' W 118°05'9 9.2
2015-May-25 08:33N 33°16' W 118°01'1010.2
2015-May-25 07:33N 33°07' W 117°57'10 9.5
2015-May-25 06:33N 32°58' W 117°52'9 9.3
2015-May-25 05:33N 32°49' W 117°48'10 9.5
2015-May-25 04:33N 32°41' W 117°44'9 8.7
2015-May-25 03:33N 32°38' W 117°34'10 9.6
2015-May-25 02:33N 32°38' W 117°22'8 7.7
2015-May-25 01:33N 32°40' W 117°14'4 4.0
2015-May-25 00:33N 32°43' W 117°10'0 0.0
2015-May-24 23:33N 32°43' W 117°10'0 0.0
2015-May-24 22:33N 32°43' W 117°10'0 0.0
2015-May-24 21:33N 32°43' W 117°10'0 0.0
2015-May-24 20:32N 32°43' W 117°10'0 0.0
2015-May-24 19:29N 32°43' W 117°10'0 0.0
2015-May-24 18:31N 32°43' W 117°10'0 0.0
2015-May-24 17:31N 32°43' W 117°10'0 0.0
2015-May-24 16:33N 32°43' W 117°10'0 0.0
2015-May-24 15:33N 32°43' W 117°10'0 0.0
2015-May-24 14:33N 32°43' W 117°10'7 6.5
2015-May-24 13:33N 32°37' W 117°14'9 8.9
2015-May-24 12:33N 32°33' W 117°23'10 9.6
2015-May-24 11:33N 32°31' W 117°34'9 8.9
2015-May-24 10:33N 32°27' W 117°44'10 9.8
2015-May-24 09:34N 32°17' W 117°44'26 1.2
2015-May-23 11:13N 32°04' W 117°17'1213.4
2015-May-23 10:21N 32°09' W 117°29'1012.8
2015-May-23 09:33N 32°13' W 117°40'1312.9
2015-May-23 08:33N 32°19' W 117°54'1413.6
2015-May-23 07:33N 32°27' W 118°07'1313.3
2015-May-23 06:33N 32°34' W 118°20'3414.1
2015-May-23 04:09N 32°44' W 118°59'814.1
2015-May-23 03:33N 32°47' W 119°08'21214.2
2015-May-22 12:33N 35°33' W 121°48'1514.6
2015-May-22 11:33N 35°46' W 121°57'1414.4
2015-May-22 10:33N 35°59' W 122°05'1514.6
2015-May-22 09:33N 36°12' W 122°14'1413.9
2015-May-22 08:33N 36°24' W 122°22'1413.7
2015-May-22 07:33N 36°37' W 122°29'1414.2
2015-May-22 06:33N 36°50' W 122°35'4314.2
2015-May-22 03:30N 37°33' W 122°44'1414.4
2015-May-22 02:31N 37°46' W 122°38'1111.5
2015-May-22 01:33N 37°49' W 122°24'1 0.7
2015-May-22 00:32N 37°48' W 122°24'0 0.0
2015-May-21 23:29N 37°48' W 122°24'0 0.0
2015-May-21 22:32N 37°48' W 122°24'0 0.0
2015-May-21 21:32N 37°48' W 122°24'0 0.0
2015-May-21 20:31N 37°48' W 122°24'0 0.0
2015-May-21 19:31N 37°48' W 122°24'0 0.0
2015-May-21 18:24N 37°48' W 122°24'0 0.0
2015-May-21 17:30N 37°48' W 122°24'0 0.0
2015-May-21 16:26N 37°48' W 122°24'0 0.0
2015-May-21 15:29N 37°48' W 122°24'0 0.0
2015-May-21 14:13N 37°48' W 122°24'0 0.0
2015-May-21 13:28N 37°48' W 122°24'0 0.0
2015-May-21 12:31N 37°48' W 122°24'0 0.0
2015-May-21 11:33N 37°48' W 122°24'0 0.0
2015-May-21 10:33N 37°48' W 122°24'0 0.0
2015-May-21 09:26N 37°48' W 122°24'0 0.0
2015-May-21 08:32N 37°48' W 122°24'0 0.0
2015-May-21 07:34N 37°48' W 122°24'0 0.0
2015-May-21 06:22N 37°48' W 122°24'0 0.0
2015-May-21 05:16N 37°48' W 122°24'0 0.0
2015-May-21 04:28N 37°48' W 122°24'0 0.0
2015-May-21 03:27N 37°48' W 122°24'0 0.0
2015-May-21 02:33N 37°48' W 122°24'0 0.0
2015-May-21 01:20N 37°48' W 122°24'0 0.0
2015-May-21 00:32N 37°48' W 122°24'0 0.0
2015-May-20 23:28N 37°48' W 122°24'0 0.0
2015-May-20 22:31N 37°48' W 122°24'0 0.0
2015-May-20 21:30N 37°48' W 122°24'0 0.0
2015-May-20 20:33N 37°48' W 122°24'0 0.0
2015-May-20 19:24N 37°48' W 122°24'0 0.0
2015-May-20 18:30N 37°48' W 122°24'0 0.0
2015-May-20 17:30N 37°48' W 122°24'0 0.0
2015-May-20 16:25N 37°48' W 122°24'0 0.1
2015-May-20 15:33N 37°48' W 122°24'1010.0
2015-May-20 14:33N 37°46' W 122°36'1615.2
2015-May-20 13:31N 37°31' W 122°39'2020.6
2015-May-20 12:33N 37°11' W 122°38'2020.7
2015-May-20 11:33N 36°51' W 122°30'2120.7
2015-May-20 10:33N 36°32' W 122°20'2120.6
2015-May-20 09:33N 36°13' W 122°10'2020.5
2015-May-20 08:33N 35°56' W 121°57'171 8.0
2015-May-19 11:16N 34°05' W 119°18'55 5.6
2015-May-19 01:30N 33°45' W 118°17'0 0.0
2015-May-19 00:33N 33°45' W 118°17'0 0.0
2015-May-18 23:33N 33°45' W 118°17'0 0.0
2015-May-18 22:33N 33°45' W 118°17'0 0.0
2015-May-18 21:33N 33°45' W 118°17'0 0.0
2015-May-18 20:32N 33°45' W 118°17'0 0.0
2015-May-18 19:32N 33°45' W 118°17'0 0.0
2015-May-18 18:33N 33°45' W 118°17'0 0.0
2015-May-18 17:26N 33°45' W 118°17'0 0.0
2015-May-18 16:14N 33°45' W 118°17'0 0.0
2015-May-18 15:33N 33°45' W 118°17'0 0.2
2015-May-18 12:19N 33°45' W 118°16'187 7.2
2015-May-17 10:08N 35°19' W 121°33'1219.6
2015-May-17 09:31N 35°30' W 121°41'1919.9
2015-May-17 08:33N 35°46' W 121°53'1919.4
2015-May-17 07:33N 36°03' W 122°06'1919.2
2015-May-17 06:33N 36°19' W 122°19'1919.3
2015-May-17 05:33N 36°37' W 122°28'2019.6
2015-May-17 04:33N 36°55' W 122°36'3919.3
2015-May-17 02:33N 37°33' W 122°44'1515.4
2015-May-17 01:33N 37°47' W 122°35'9 7.2
2015-May-17 00:20N 37°48' W 122°24'0 0.0
2015-May-16 23:28N 37°48' W 122°24'0 0.0
2015-May-16 22:31N 37°48' W 122°24'0 0.0
2015-May-16 21:24N 37°48' W 122°24'0 0.0
2015-May-16 20:21N 37°48' W 122°24'0 0.0
2015-May-16 18:08N 37°48' W 122°24'0 0.0
2015-May-16 17:16N 37°48' W 122°24'0 0.0
2015-May-16 16:28N 37°48' W 122°24'0 0.0
2015-May-16 15:28N 37°48' W 122°24'0 0.0
2015-May-16 14:23N 37°48' W 122°24'2 2.1
2015-May-16 13:33N 37°49' W 122°26'1313.2
2015-May-16 12:33N 37°46' W 122°42'1716.8
2015-May-16 11:33N 37°53' W 123°02'1515.7
2015-May-16 10:33N 38°03' W 123°17'1414.3
2015-May-16 09:34N 38°15' W 123°28'1514.8
2015-May-16 08:34N 38°27' W 123°38'1514.9
2015-May-16 07:32N 38°39' W 123°49'  
Track history (hours):
 
Tides and Currents Weather Stations Pressure Air Temp Water Temp Dewpoint Dewpoint Depression Visibility Wind Speed Wind Dir Waves Ship Positions

Crystal Symphony

Operator: Crystal Cruises

Last reported at 2015-May-26 07:28 UTC. Time now 2015-May-26 09:50 UTC.
Position N 31°40' W 117°24'.

Length 238 m; draft 8 m.

Type: Passenger vessel. MMSI: 309168000.

Date/timePositionNaut miles runAvg speedWind from/ knotsBaromVisibWave heightAir tempDewpointWater temp
2015-May-26 07:28N 31°40' W 117°24'2319.6
2015-May-26 06:18N 32°01' W 117°33'1419.4
2015-May-26 05:34N 32°15' W 117°39'2019.9
2015-May-26 04:34N 32°33' W 117°47'2019.7
2015-May-26 03:34N 32°52' W 117°56'2020.1
2015-May-26 02:34N 33°11' W 118°03'2120.2
2015-May-26 01:32N 33°30' W 118°11'1411.5
2015-May-26 00:19N 33°44' W 118°16'1 1.3
2015-May-25 23:31N 33°45' W 118°17'0 0.0
2015-May-25 22:30N 33°45' W 118°17'0 0.0
2015-May-25 21:30N 33°45' W 118°17'0 0.0
2015-May-25 20:18N 33°45' W 118°17'0 0.0
2015-May-25 19:05N 33°45' W 118°17'0 0.0
2015-May-25 18:20N 33°45' W 118°17'0 0.0
2015-May-25 16:28N 33°45' W 118°17'0 0.1
2015-May-25 12:23N 33°45' W 118°16'13 7.1
2015-May-25 10:29N 33°33' W 118°09'9 9.4
2015-May-25 09:33N 33°25' W 118°05'9 9.2
2015-May-25 08:33N 33°16' W 118°01'1010.2
2015-May-25 07:33N 33°07' W 117°57'10 9.5
2015-May-25 06:33N 32°58' W 117°52'9 9.3
2015-May-25 05:33N 32°49' W 117°48'10 9.5
2015-May-25 04:33N 32°41' W 117°44'9 8.7
2015-May-25 03:33N 32°38' W 117°34'10 9.6
2015-May-25 02:33N 32°38' W 117°22'8 7.7
2015-May-25 01:33N 32°40' W 117°14'4 4.0
2015-May-25 00:33N 32°43' W 117°10'0 0.0
2015-May-24 23:33N 32°43' W 117°10'0 0.0
2015-May-24 22:33N 32°43' W 117°10'0 0.0
2015-May-24 21:33N 32°43' W 117°10'0 0.0
2015-May-24 20:32N 32°43' W 117°10'0 0.0
2015-May-24 19:29N 32°43' W 117°10'0 0.0
2015-May-24 18:31N 32°43' W 117°10'0 0.0
2015-May-24 17:31N 32°43' W 117°10'0 0.0
2015-May-24 16:33N 32°43' W 117°10'0 0.0
2015-May-24 15:33N 32°43' W 117°10'0 0.0
2015-May-24 14:33N 32°43' W 117°10'7 6.5
2015-May-24 13:33N 32°37' W 117°14'9 8.9
2015-May-24 12:33N 32°33' W 117°23'10 9.6
2015-May-24 11:33N 32°31' W 117°34'9 8.9
2015-May-24 10:33N 32°27' W 117°44'10 9.8
2015-May-24 09:34N 32°17' W 117°44'26 1.2
2015-May-23 11:13N 32°04' W 117°17'1213.4
2015-May-23 10:21N 32°09' W 117°29'1012.8
2015-May-23 09:33N 32°13' W 117°40'1312.9
2015-May-23 08:33N 32°19' W 117°54'1413.6
2015-May-23 07:33N 32°27' W 118°07'1313.3
2015-May-23 06:33N 32°34' W 118°20'3414.1
2015-May-23 04:09N 32°44' W 118°59'814.1
2015-May-23 03:33N 32°47' W 119°08'21214.2
2015-May-22 12:33N 35°33' W 121°48'1514.6
2015-May-22 11:33N 35°46' W 121°57'1414.4
2015-May-22 10:33N 35°59' W 122°05'1514.6
2015-May-22 09:33N 36°12' W 122°14'1413.9
2015-May-22 08:33N 36°24' W 122°22'1413.7
2015-May-22 07:33N 36°37' W 122°29'1414.2
2015-May-22 06:33N 36°50' W 122°35'4314.2
2015-May-22 03:30N 37°33' W 122°44'1414.4
2015-May-22 02:31N 37°46' W 122°38'1111.5
2015-May-22 01:33N 37°49' W 122°24'1 0.7
2015-May-22 00:32N 37°48' W 122°24'0 0.0
2015-May-21 23:29N 37°48' W 122°24'0 0.0
2015-May-21 22:32N 37°48' W 122°24'0 0.0
2015-May-21 21:32N 37°48' W 122°24'0 0.0
2015-May-21 20:31N 37°48' W 122°24'0 0.0
2015-May-21 19:31N 37°48' W 122°24'0 0.0
2015-May-21 18:24N 37°48' W 122°24'0 0.0
2015-May-21 17:30N 37°48' W 122°24'0 0.0
2015-May-21 16:26N 37°48' W 122°24'0 0.0
2015-May-21 15:29N 37°48' W 122°24'0 0.0
2015-May-21 14:13N 37°48' W 122°24'0 0.0
2015-May-21 13:28N 37°48' W 122°24'0 0.0
2015-May-21 12:31N 37°48' W 122°24'0 0.0
2015-May-21 11:33N 37°48' W 122°24'0 0.0
2015-May-21 10:33N 37°48' W 122°24'0 0.0
2015-May-21 09:26N 37°48' W 122°24'0 0.0
2015-May-21 08:32N 37°48' W 122°24'0 0.0
2015-May-21 07:34N 37°48' W 122°24'0 0.0
2015-May-21 06:22N 37°48' W 122°24'0 0.0
2015-May-21 05:16N 37°48' W 122°24'0 0.0
2015-May-21 04:28N 37°48' W 122°24'0 0.0
2015-May-21 03:27N 37°48' W 122°24'0 0.0
2015-May-21 02:33N 37°48' W 122°24'0 0.0
2015-May-21 01:20N 37°48' W 122°24'0 0.0
2015-May-21 00:32N 37°48' W 122°24'0 0.0
2015-May-20 23:28N 37°48' W 122°24'0 0.0
2015-May-20 22:31N 37°48' W 122°24'0 0.0
2015-May-20 21:30N 37°48' W 122°24'0 0.0
2015-May-20 20:33N 37°48' W 122°24'0 0.0
2015-May-20 19:24N 37°48' W 122°24'0 0.0
2015-May-20 18:30N 37°48' W 122°24'0 0.0
2015-May-20 17:30N 37°48' W 122°24'0 0.0
2015-May-20 16:25N 37°48' W 122°24'0 0.1
2015-May-20 15:33N 37°48' W 122°24'1010.0
2015-May-20 14:33N 37°46' W 122°36'1615.2
2015-May-20 13:31N 37°31' W 122°39'2020.6
2015-May-20 12:33N 37°11' W 122°38'2020.7
2015-May-20 11:33N 36°51' W 122°30'2120.7
2015-May-20 10:33N 36°32' W 122°20'2120.6
2015-May-20 09:33N 36°13' W 122°10'2020.5
2015-May-20 08:33N 35°56' W 121°57'171 8.0
2015-May-19 11:16N 34°05' W 119°18'55 5.6
2015-May-19 01:30N 33°45' W 118°17'0 0.0
2015-May-19 00:33N 33°45' W 118°17'0 0.0
2015-May-18 23:33N 33°45' W 118°17'0 0.0
2015-May-18 22:33N 33°45' W 118°17'0 0.0
2015-May-18 21:33N 33°45' W 118°17'0 0.0
2015-May-18 20:32N 33°45' W 118°17'0 0.0
2015-May-18 19:32N 33°45' W 118°17'0 0.0
2015-May-18 18:33N 33°45' W 118°17'0 0.0
2015-May-18 17:26N 33°45' W 118°17'0 0.0
2015-May-18 16:14N 33°45' W 118°17'0 0.0
2015-May-18 15:33N 33°45' W 118°17'0 0.2
2015-May-18 12:19N 33°45' W 118°16'187 7.2
2015-May-17 10:08N 35°19' W 121°33'1219.6
2015-May-17 09:31N 35°30' W 121°41'1919.9
2015-May-17 08:33N 35°46' W 121°53'1919.4
2015-May-17 07:33N 36°03' W 122°06'1919.2
2015-May-17 06:33N 36°19' W 122°19'1919.3
2015-May-17 05:33N 36°37' W 122°28'2019.6
2015-May-17 04:33N 36°55' W 122°36'3919.3
2015-May-17 02:33N 37°33' W 122°44'1515.4
2015-May-17 01:33N 37°47' W 122°35'9 7.2
2015-May-17 00:20N 37°48' W 122°24'0 0.0
2015-May-16 23:28N 37°48' W 122°24'0 0.0
2015-May-16 22:31N 37°48' W 122°24'0 0.0
2015-May-16 21:24N 37°48' W 122°24'0 0.0
2015-May-16 20:21N 37°48' W 122°24'0 0.0
2015-May-16 18:08N 37°48' W 122°24'0 0.0
2015-May-16 17:16N 37°48' W 122°24'0 0.0
2015-May-16 16:28N 37°48' W 122°24'0 0.0
2015-May-16 15:28N 37°48' W 122°24'0 0.0
2015-May-16 14:23N 37°48' W 122°24'2 2.1
2015-May-16 13:33N 37°49' W 122°26'1313.2
2015-May-16 12:33N 37°46' W 122°42'1716.8
2015-May-16 11:33N 37°53' W 123°02'1515.7
2015-May-16 10:33N 38°03' W 123°17'1414.3
2015-May-16 09:34N 38°15' W 123°28'1514.8
2015-May-16 08:34N 38°27' W 123°38'1514.9
2015-May-16 07:32N 38°39' W 123°49'  

Dump ship's entire track history